Time;durP1;ratioP1;P1;durP2;ratioP2;P2;SDS_P1;SDS_P2;PMS_P1;PMS_P2;Temp;Humidity;BMP_temperature;BMP_pressure;BME280_temperature;BME280_humidity;BME280_pressure;Samples;Min_cycle;Max_cycle;Signal;HPM_P1;HPM_P2
2023/03/11 00:02:24;;;;;;;5.40;1.90;;;;;;;17.07;78.28;97230.25;5750895;24;20574;-93
2023/03/11 00:08:28;;;;;;;;;;;;;;;;;;;;;
2023/03/11 00:11:16;;;;;;;2.43;1.33;;;;;;;16.96;79.66;97231.44;5874770;24;20673;-93
2023/03/11 00:14:15;;;;;;;4.57;1.60;;;;;;;17.01;79.27;97238.84;5956335;24;20655;-91
2023/03/11 00:27:44;;;;;;;;;;;;;;;;;;;;;
2023/03/11 03:02:43;;;;;;;6.43;2.03;;;;;;;16.95;75.33;97080.75;6161569;23;20256;-92
2023/03/11 03:05:59;;;;;;;5.40;2.23;;;;;;;16.82;76.38;97067.25;6135902;23;20232;-94
2023/03/11 03:16:07;;;;;;;;;;;;;;;;;;;;;
2023/03/11 03:47:10;;;;;;;;;;;;;;;;;;;;;
2023/03/11 03:57:04;;;;;;;;;;;;;;;;;;;;;
2023/03/11 20:03:38;;;;;;;0.93;0.40;;;;;;;14.46;62.30;97590.63;6110553;23;20214;-89
2023/03/11 20:21:52;;;;;;;;;;;;;;;;;;;;;
2023/03/11 20:34:16;;;;;;;6.00;1.00;;;;;;;13.71;73.31;97591.31;6161141;23;20228;-92
2023/03/11 20:37:30;;;;;;;2.23;0.93;;;;;;;13.75;73.73;97605.06;6167761;23;20155;-94
2023/03/11 20:43:23;;;;;;;2.00;1.00;;;;;;;13.30;74.79;97617.84;6093812;23;20205;-93
2023/03/11 20:56:52;;;;;;;2.97;1.43;;;;;;;12.85;74.18;97628.72;5921483;24;20602;-93
2023/03/11 21:05:58;;;;;;;2.20;1.03;;;;;;;12.75;71.97;97642.78;6066763;23;20170;-94
2023/03/11 21:11:59;;;;;;;1.97;1.00;;;;;;;12.40;71.25;97658.88;6067933;23;20163;-95
2023/03/11 21:14:50;;;;;;;2.57;0.90;;;;;;;12.42;69.89;97662.22;6054807;23;20165;-93
2023/03/11 21:17:26;;;;;;;1.23;0.70;;;;;;;12.54;68.25;97658.59;5965759;24;20165;-91
2023/03/11 21:20:12;;;;;;;6.60;1.47;;;;;;;12.40;68.44;97668.56;5966647;24;20169;-94
2023/03/11 21:22:44;;;;;;;1.43;0.67;;;;;;;12.26;68.35;97673.16;5973481;24;20219;-93
2023/03/11 21:25:13;;;;;;;2.23;1.17;;;;;;;12.36;67.94;97686.38;5999828;23;20156;-94
2023/03/11 21:27:41;;;;;;;1.60;0.83;;;;;;;12.53;66.26;97679.72;6040452;23;20587;-95
2023/03/11 21:30:07;;;;;;;3.37;1.07;;;;;;;12.54;67.05;97679.59;6164588;23;20176;-94
2023/03/11 21:32:42;;;;;;;1.67;0.63;;;;;;;12.72;65.77;97679.84;6163893;23;20580;-95
2023/03/11 21:35:08;;;;;;;1.73;0.80;;;;;;;12.45;64.42;97692.69;6167042;23;20159;-95
2023/03/11 21:37:33;;;;;;;1.70;0.80;;;;;;;12.31;65.40;97693.81;6168367;23;20171;-92
2023/03/11 21:40:21;;;;;;;2.07;1.10;;;;;;;12.28;64.83;97694.06;6167685;23;20157;-94
2023/03/11 21:42:50;;;;;;;3.27;1.00;;;;;;;11.91;66.15;97692.75;6166658;23;20176;-94
2023/03/11 21:45:16;;;;;;;3.40;1.20;;;;;;;12.07;65.54;97701.91;6164689;23;20527;-91
2023/03/11 21:48:27;;;;;;;;;;;;;;;;;;;;;
2023/03/11 21:57:38;;;;;;;2.17;0.97;;;;;;;11.61;66.31;97707.34;6071087;23;20208;-92
2023/03/11 22:00:22;;;;;;;1.53;0.80;;;;;;;11.56;66.33;97709.50;6168969;23;20189;-96
2023/03/11 22:06:07;;;;;;;1.23;0.70;;;;;;;11.12;67.50;97685.94;6169786;23;20331;-93
2023/03/11 22:12:14;;;;;;;5.07;2.10;;;;;;;11.36;66.83;97702.38;6045790;23;20154;-92
2023/03/11 22:25:28;;;;;;;;;;;;;;;;;;;;;
2023/03/11 22:28:31;;;;;;;2.13;0.50;;;;;;;11.04;66.84;97712.75;6013611;23;20242;-93
2023/03/11 22:34:18;;;;;;;0.50;0.40;;;;;;;10.91;66.27;97729.53;6019757;23;20249;-94
2023/03/11 22:37:16;;;;;;;1.07;0.70;;;;;;;10.92;65.92;97723.34;5963091;24;20223;-91
2023/03/11 22:40:07;;;;;;;1.03;0.50;;;;;;;10.83;65.96;97729.28;5977872;24;20163;-91
2023/03/11 22:42:33;;;;;;;3.90;0.70;;;;;;;10.88;65.64;97729.75;6057794;23;20195;-92
2023/03/11 22:45:52;;;;;;;1.60;0.70;;;;;;;11.23;64.05;97725.28;6097365;23;20155;-93
2023/03/11 22:49:01;;;;;;;1.60;0.60;;;;;;;11.28;63.14;97703.94;6160641;23;20186;-93
2023/03/11 22:51:25;;;;;;;1.13;0.50;;;;;;;10.96;64.25;97709.03;6162166;23;20492;-93
2023/03/11 22:54:07;;;;;;;1.23;0.40;;;;;;;10.89;64.21;97698.19;6139375;23;20203;-91
2023/03/11 22:59:19;;;;;;;1.03;0.50;;;;;;;10.81;63.72;97718.91;6102157;23;20155;-91
2023/03/11 23:01:52;;;;;;;1.47;0.73;;;;;;;10.89;63.09;97715.72;6160837;23;20170;-92
2023/03/11 23:04:24;;;;;;;2.33;0.53;;;;;;;11.10;61.22;97720.16;6135311;23;20175;-92
2023/03/11 23:06:53;;;;;;;1.33;0.60;;;;;;;10.89;61.83;97718.34;6139780;23;20155;-91
2023/03/11 23:09:25;;;;;;;1.70;0.77;;;;;;;10.93;61.31;97733.69;6138781;23;20197;-92
2023/03/11 23:11:51;;;;;;;1.17;0.50;;;;;;;10.94;60.92;97727.50;6137487;23;20163;-93
2023/03/11 23:14:40;;;;;;;;;;;;;;;;;;;;;
2023/03/11 23:17:06;;;;;;;4.73;0.70;;;;;;;11.45;57.48;97738.38;6167295;23;20167;-91
2023/03/11 23:19:34;;;;;;;2.60;0.90;;;;;;;11.48;56.77;97740.75;6137527;23;20166;-92
2023/03/11 23:22:06;;;;;;;1.50;0.60;;;;;;;11.48;56.34;97722.41;6135069;23;20639;-91
2023/03/11 23:24:34;;;;;;;2.53;1.00;;;;;;;11.34;56.47;97717.41;6136362;23;20150;-94
2023/03/11 23:27:03;;;;;;;1.93;0.83;;;;;;;11.22;55.91;97717.50;6138071;23;20152;-92
2023/03/11 23:29:39;;;;;;;2.17;0.37;;;;;;;11.24;56.16;97705.94;6135018;23;20166;-93
2023/03/11 23:32:25;;;;;;;7.90;0.80;;;;;;;10.97;56.52;97702.84;6154048;23;20225;-93
2023/03/11 23:35:13;;;;;;;0.70;0.40;;;;;;;10.79;56.64;97704.25;6159114;23;20169;-91
2023/03/11 23:37:41;;;;;;;1.13;0.30;;;;;;;10.50;57.01;97703.84;6160338;23;20170;-89
2023/03/11 23:40:16;;;;;;;0.87;0.27;;;;;;;10.54;57.22;97705.25;6161166;23;20163;-92
2023/03/11 23:42:44;;;;;;;1.90;0.60;;;;;;;10.60;56.41;97693.50;6161606;23;20171;-93
2023/03/11 23:45:36;;;;;;;1.33;0.67;;;;;;;10.61;56.63;97703.88;6161295;23;20230;-91
2023/03/11 23:48:04;;;;;;;0.80;0.40;;;;;;;10.49;56.96;97700.38;6148374;23;20166;-91
2023/03/11 23:50:56;;;;;;;1.00;0.60;;;;;;;10.48;56.76;97709.19;6159819;23;20162;-93
2023/03/11 23:53:30;;;;;;;1.53;0.50;;;;;;;10.65;56.19;97714.94;6161906;23;20217;-91
2023/03/11 23:56:29;;;;;;;0.73;0.27;;;;;;;10.61;55.96;97730.06;6160233;23;20146;-92
2023/03/11 23:59:17;;;;;;;1.17;0.50;;;;;;;10.71;55.86;97738.06;6154661;23;20166;-93
